Time;durP1;ratioP1;P1;durP2;ratioP2;P2;SDS_P1;SDS_P2;PMS_P1;PMS_P2;Temp;Humidity;BMP_temperature;BMP_pressure;BME280_temperature;BME280_humidity;BME280_pressure;Samples;Min_cycle;Max_cycle;Signal;HPM_P1;HPM_P2
2021/03/04 00:00:37;;;;;;;192.57;96.35;;;154.20;1766.40;;;;;;5090675;28;20477;-73
2021/03/04 00:03:04;;;;;;;175.45;93.78;;;154.30;1740.80;;;;;;5094444;28;20024;-74
2021/03/04 00:05:30;;;;;;;176.70;89.15;;;154.20;1740.80;;;;;;5090231;28;20052;-74
2021/03/04 00:07:56;;;;;;;174.80;90.07;;;154.10;1766.40;;;;;;5076218;28;20032;-74
2021/03/04 00:10:23;;;;;;;180.40;93.38;;;154.10;1766.40;;;;;;5073947;28;20499;-73
2021/03/04 00:12:50;;;;;;;203.27;97.75;;;154.10;1766.40;;;;;;5055561;28;20105;-74
2021/03/04 00:15:18;;;;;;;208.80;98.57;;;154.10;1766.40;;;;;;5082995;28;20024;-74
2021/03/04 00:17:45;;;;;;;208.13;97.53;;;154.10;1766.40;;;;;;5092643;28;20036;-74
2021/03/04 00:20:23;;;;;;;214.60;106.35;;;154.00;1766.40;;;;;;5092971;28;20039;-74
2021/03/04 00:22:49;;;;;;;188.60;96.45;;;154.00;1766.40;;;;;;5094306;28;20028;-74
2021/03/04 00:25:15;;;;;;;184.75;90.85;;;154.00;1792.00;;;;;;5094269;28;20028;-74
2021/03/04 00:27:41;;;;;;;151.75;80.15;;;154.00;1766.40;;;;;;5092678;28;20809;-74
2021/03/04 00:30:10;;;;;;;136.98;73.70;;;154.00;1766.40;;;;;;5094140;28;20031;-74
2021/03/04 00:32:36;;;;;;;146.35;77.45;;;154.00;1766.40;;;;;;5094128;28;20031;-73
2021/03/04 00:35:03;;;;;;;143.27;76.43;;;153.90;1792.00;;;;;;5094084;28;20032;-74
2021/03/04 00:37:29;;;;;;;139.68;70.22;;;153.90;1792.00;;;;;;5094103;28;20016;-74
2021/03/04 00:39:54;;;;;;;127.13;68.07;;;153.90;1792.00;;;;;;5094071;28;20099;-74
2021/03/04 00:42:20;;;;;;;126.85;67.53;;;153.90;1792.00;;;;;;5092632;28;20055;-74
2021/03/04 00:44:46;;;;;;;139.57;72.93;;;153.80;1792.00;;;;;;5094006;28;20484;-74
2021/03/04 00:47:11;;;;;;;128.45;69.70;;;153.80;1817.60;;;;;;5092351;28;20024;-73
2021/03/04 00:49:37;;;;;;;146.45;78.10;;;153.80;1817.60;;;;;;5093864;28;20044;-74
2021/03/04 00:52:03;;;;;;;153.00;79.22;;;153.80;1817.60;;;;;;5093782;28;20099;-73
2021/03/04 00:54:29;;;;;;;166.07;84.97;;;153.70;1843.20;;;;;;5092547;28;20016;-73
2021/03/04 00:56:54;;;;;;;164.93;83.85;;;153.70;1843.20;;;;;;5093868;28;20041;-73
2021/03/04 00:59:20;;;;;;;173.73;83.75;;;153.70;1843.20;;;;;;5093598;28;20086;-73
2021/03/04 01:01:46;;;;;;;161.65;83.15;;;153.70;1843.20;;;;;;5091988;28;20028;-74
2021/03/04 01:04:12;;;;;;;166.75;84.97;;;153.70;1843.20;;;;;;5093731;28;20028;-74
2021/03/04 01:06:38;;;;;;;151.65;79.88;;;153.70;1843.20;;;;;;5093487;28;20515;-73
2021/03/04 01:09:05;;;;;;;153.35;77.53;;;153.60;1868.80;;;;;;5093595;28;20103;-73
2021/03/04 01:11:31;;;;;;;133.43;72.68;;;153.60;1868.80;;;;;;5092583;28;20064;-73
2021/03/04 01:13:57;;;;;;;125.78;67.22;;;153.70;1843.20;;;;;;5093386;28;20028;-73
2021/03/04 01:16:23;;;;;;;127.20;68.55;;;153.60;1843.20;;;;;;5092503;28;20093;-73
2021/03/04 01:18:48;;;;;;;131.48;69.35;;;153.60;1843.20;;;;;;5093901;28;20433;-73
2021/03/04 01:21:14;;;;;;;139.45;71.30;;;153.60;1843.20;;;;;;5093515;28;20016;-74
2021/03/04 01:23:40;;;;;;;145.88;73.65;;;153.60;1843.20;;;;;;5093475;28;20031;-73
2021/03/04 01:26:06;;;;;;;141.88;71.18;;;153.70;1843.20;;;;;;5093656;28;20047;-73
2021/03/04 01:28:31;;;;;;;143.73;72.50;;;153.60;1843.20;;;;;;5091844;28;20527;-73
2021/03/04 01:30:57;;;;;;;148.32;73.45;;;153.60;1843.20;;;;;;5092297;28;20031;-73
2021/03/04 01:33:23;;;;;;;134.23;68.72;;;153.60;1843.20;;;;;;5093355;28;20024;-73
2021/03/04 01:35:49;;;;;;;129.13;66.15;;;128.90;1843.20;;;;;;5091609;28;20043;-73
2021/03/04 01:38:15;;;;;;;120.60;63.30;;;128.90;1843.20;;;;;;5093330;28;20020;-74
2021/03/04 01:40:41;;;;;;;113.72;59.88;;;128.90;1843.20;;;;;;5093602;28;20026;-74
2021/03/04 01:43:07;;;;;;;110.40;58.08;;;128.90;1843.20;;;;;;5093844;28;20050;-73
2021/03/04 01:45:33;;;;;;;108.10;53.60;;;128.90;1843.20;;;;;;5092070;28;20028;-73
2021/03/04 01:48:00;;;;;;;110.80;57.08;;;128.80;1843.20;;;;;;5093232;28;20107;-74
2021/03/04 01:50:27;;;;;;;106.68;55.40;;;128.80;1843.20;;;;;;5093158;28;20040;-74
2021/03/04 01:52:54;;;;;;;109.75;56.72;;;128.70;1843.20;;;;;;5093106;28;20060;-74
2021/03/04 01:55:20;;;;;;;109.60;55.88;;;128.70;1843.20;;;;;;5091871;28;20028;-74
2021/03/04 01:57:47;;;;;;;101.60;54.08;;;128.60;1843.20;;;;;;5091812;28;20038;-74
2021/03/04 02:00:15;;;;;;;107.80;53.05;;;128.60;1843.20;;;;;;5093125;28;20020;-74
2021/03/04 02:02:42;;;;;;;104.45;53.35;;;128.60;1868.80;;;;;;5093118;28;20027;-74
2021/03/04 02:05:13;;;;;;;99.82;50.97;;;128.60;1868.80;;;;;;5091093;28;20083;-74
2021/03/04 02:08:02;;;;;;;95.82;46.72;;;128.50;1868.80;;;;;;5091802;28;20028;-74
2021/03/04 02:10:45;;;;;;;93.78;49.33;;;128.50;1843.20;;;;;;5091771;28;20114;-74
2021/03/04 02:13:22;;;;;;;90.82;48.08;;;128.50;1843.20;;;;;;5095079;28;20032;-74
2021/03/04 02:16:05;;;;;;;92.95;47.88;;;128.50;1868.80;;;;;;5095466;28;20036;-74
2021/03/04 02:18:34;;;;;;;91.28;46.78;;;128.50;1868.80;;;;;;5094379;28;20027;-74
2021/03/04 02:21:22;;;;;;;84.85;43.65;;;128.50;1868.80;;;;;;5095123;28;20044;-74
2021/03/04 02:24:08;;;;;;;77.20;41.70;;;128.40;1868.80;;;;;;5094045;28;20031;-74
2021/03/04 02:27:13;;;;;;;77.97;42.13;;;128.40;1868.80;;;;;;5094992;28;20047;-74
2021/03/04 02:29:48;;;;;;;81.20;40.63;;;128.40;1868.80;;;;;;5078382;28;20043;-74
2021/03/04 02:32:21;;;;;;;78.45;41.03;;;128.30;1894.40;;;;;;5096507;28;20031;-74
2021/03/04 02:34:54;;;;;;;73.45;39.28;;;128.40;1894.40;;;;;;5096485;28;20020;-74
2021/03/04 02:37:22;;;;;;;71.75;39.30;;;128.40;1868.80;;;;;;5095210;28;20440;-74
2021/03/04 02:39:51;;;;;;;69.88;35.33;;;128.40;1894.40;;;;;;5096706;28;20021;-74
2021/03/04 02:42:20;;;;;;;52.60;30.17;;;128.40;1894.40;;;;;;5094944;28;20483;-74
2021/03/04 02:44:48;;;;;;;51.97;29.50;;;128.40;1894.40;;;;;;5094927;28;20032;-74
2021/03/04 02:47:18;;;;;;;55.60;30.75;;;128.40;1894.40;;;;;;5094693;28;20472;-74
2021/03/04 02:49:45;;;;;;;56.20;27.83;;;128.40;1894.40;;;;;;5096072;28;20036;-74
2021/03/04 02:52:11;;;;;;;47.97;26.45;;;128.40;1894.40;;;;;;5094067;28;20053;-73
2021/03/04 02:54:38;;;;;;;44.22;26.00;;;128.30;1894.40;;;;;;5095640;28;20120;-73
2021/03/04 02:57:07;;;;;;;46.75;25.65;;;128.30;1894.40;;;;;;5096296;28;20044;-74
2021/03/04 02:59:33;;;;;;;48.05;25.65;;;128.20;1894.40;;;;;;5094211;28;20388;-73
2021/03/04 03:02:01;;;;;;;46.30;24.80;;;128.20;1894.40;;;;;;5094604;28;20031;-73
2021/03/04 03:04:27;;;;;;;48.75;25.52;;;128.20;1920.00;;;;;;5094713;28;20407;-74
2021/03/04 03:06:54;;;;;;;44.22;24.10;;;128.20;1920.00;;;;;;5095722;28;20044;-73
2021/03/04 03:09:22;;;;;;;49.30;27.13;;;128.20;1894.40;;;;;;5096215;28;20047;-73
2021/03/04 03:11:48;;;;;;;52.28;28.30;;;128.20;1894.40;;;;;;5095770;28;20073;-73
2021/03/04 03:14:14;;;;;;;62.38;32.08;;;128.10;1894.40;;;;;;5095742;28;20025;-74
2021/03/04 03:16:40;;;;;;;65.68;36.20;;;128.10;1894.40;;;;;;5094637;28;20043;-74
2021/03/04 03:19:06;;;;;;;61.22;34.25;;;128.10;1894.40;;;;;;5094413;28;20498;-74
2021/03/04 03:21:32;;;;;;;64.30;35.78;;;128.10;1894.40;;;;;;5094258;28;20055;-74
2021/03/04 03:23:58;;;;;;;68.30;34.55;;;128.10;1894.40;;;;;;5094906;28;20027;-73
2021/03/04 03:26:23;;;;;;;67.68;37.28;;;128.10;1894.40;;;;;;5095477;28;20053;-74
2021/03/04 03:28:49;;;;;;;67.45;35.95;;;128.00;1920.00;;;;;;5096067;28;20163;-74
2021/03/04 03:31:19;;;;;;;67.53;36.92;;;128.10;1920.00;;;;;;5093721;28;20387;-73
2021/03/04 03:33:45;;;;;;;75.03;39.30;;;128.10;1920.00;;;;;;5093013;28;20126;-74
2021/03/04 03:36:12;;;;;;;73.10;38.75;;;128.10;1894.40;;;;;;5093828;28;20020;-74
2021/03/04 03:38:39;;;;;;;71.75;40.45;;;128.10;1894.40;;;;;;5093123;28;20020;-73
2021/03/04 03:41:06;;;;;;;73.60;37.10;;;128.10;1894.40;;;;;;5093862;28;20099;-73
2021/03/04 03:43:33;;;;;;;75.28;40.38;;;128.10;1920.00;;;;;;5093567;28;20044;-73
2021/03/04 03:46:00;;;;;;;63.72;38.63;;;128.10;1920.00;;;;;;5093916;28;20077;-73
2021/03/04 03:48:27;;;;;;;70.57;37.78;;;128.00;1920.00;;;;;;5093469;28;20062;-73
2021/03/04 03:50:55;;;;;;;70.60;36.67;;;128.00;1920.00;;;;;;5095035;28;20024;-73
2021/03/04 03:53:22;;;;;;;70.95;36.38;;;128.00;1920.00;;;;;;5093674;28;20483;-73
2021/03/04 03:55:49;;;;;;;56.72;32.20;;;128.00;1920.00;;;;;;5094916;28;20399;-73
2021/03/04 03:58:22;;;;;;;59.20;33.95;;;128.00;1920.00;;;;;;5094839;28;20467;-73
2021/03/04 04:00:49;;;;;;;64.80;34.33;;;103.30;1894.40;;;;;;5093596;28;20059;-73
2021/03/04 04:03:16;;;;;;;58.80;34.38;;;103.30;1894.40;;;;;;5094734;28;20028;-73
2021/03/04 04:05:42;;;;;;;66.30;32.40;;;103.30;1894.40;;;;;;5094521;28;20048;-73
2021/03/04 04:08:07;;;;;;;60.10;33.20;;;128.00;1920.00;;;;;;5093308;28;20032;-73
2021/03/04 04:10:38;;;;;;;64.53;37.03;;;128.10;1920.00;;;;;;5093619;28;20104;-73
2021/03/04 04:13:04;;;;;;;59.60;34.22;;;128.00;1945.60;;;;;;5094620;28;20035;-73
2021/03/04 04:15:30;;;;;;;60.60;31.40;;;103.30;1920.00;;;;;;5094560;28;20024;-73
2021/03/04 04:17:59;;;;;;;58.35;31.20;;;103.30;1920.00;;;;;;5093034;28;20020;-73
2021/03/04 04:20:25;;;;;;;56.47;31.00;;;103.20;1920.00;;;;;;5092820;28;20062;-73
2021/03/04 04:22:52;;;;;;;56.58;31.17;;;103.20;1920.00;;;;;;5094450;28;20476;-73
2021/03/04 04:25:21;;;;;;;61.25;28.73;;;103.10;1945.60;;;;;;5092898;28;20384;-73
2021/03/04 04:27:49;;;;;;;54.42;29.00;;;103.20;1945.60;;;;;;5092703;28;20797;-73
2021/03/04 04:30:15;;;;;;;53.72;28.40;;;103.20;1945.60;;;;;;5094234;28;20026;-73
2021/03/04 04:32:41;;;;;;;50.72;27.58;;;103.10;1945.60;;;;;;5092453;28;20040;-73
2021/03/04 04:35:07;;;;;;;52.55;28.65;;;103.10;1971.20;;;;;;5092036;28;20119;-73
2021/03/04 04:37:33;;;;;;;57.67;31.92;;;103.10;1971.20;;;;;;5094682;28;20020;-73
2021/03/04 04:39:58;;;;;;;51.67;28.48;;;103.10;1996.80;;;;;;5092537;28;20024;-73
2021/03/04 04:42:24;;;;;;;51.40;27.88;;;103.20;1971.20;;;;;;5093824;28;20118;-73
2021/03/04 04:44:50;;;;;;;50.65;28.00;;;103.30;1971.20;;;;;;5093807;28;20035;-73
2021/03/04 04:47:16;;;;;;;47.65;27.45;;;103.20;1971.20;;;;;;5093781;28;20430;-73
2021/03/04 04:49:42;;;;;;;49.47;27.65;;;103.20;1971.20;;;;;;5092638;28;20115;-73
2021/03/04 04:52:08;;;;;;;51.83;28.05;;;103.20;1971.20;;;;;;5092336;28;20059;-73
2021/03/04 04:54:34;;;;;;;47.88;26.35;;;103.20;1971.20;;;;;;5092838;28;20028;-73
2021/03/04 04:56:59;;;;;;;51.63;27.40;;;103.10;1971.20;;;;;;5092529;28;20020;-73
2021/03/04 04:59:25;;;;;;;52.20;27.67;;;103.10;1971.20;;;;;;5092103;28;20125;-74
2021/03/04 05:01:51;;;;;;;50.05;28.58;;;103.20;1945.60;;;;;;5093602;28;20101;-74
2021/03/04 05:04:16;;;;;;;51.63;27.98;;;103.20;1945.60;;;;;;5092108;28;20032;-74
2021/03/04 05:06:42;;;;;;;55.03;28.35;;;103.20;1971.20;;;;;;5093231;28;20048;-73
2021/03/04 05:09:08;;;;;;;51.38;29.15;;;103.20;1971.20;;;;;;5093529;28;20379;-74
2021/03/04 05:11:34;;;;;;;52.95;26.83;;;103.20;1971.20;;;;;;5093817;28;20020;-73
2021/03/04 05:14:00;;;;;;;51.42;24.90;;;103.20;1971.20;;;;;;5093492;28;20438;-74
2021/03/04 05:16:26;;;;;;;51.83;26.75;;;103.20;1971.20;;;;;;5093224;28;20028;-74
2021/03/04 05:18:52;;;;;;;49.42;26.73;;;103.20;1971.20;;;;;;5090586;28;20028;-74
2021/03/04 05:21:17;;;;;;;54.33;28.63;;;103.20;1971.20;;;;;;5091868;28;20514;-73
2021/03/04 05:23:43;;;;;;;58.90;29.55;;;103.20;1971.20;;;;;;5091960;28;20031;-73
2021/03/04 05:26:09;;;;;;;60.58;29.83;;;103.20;1971.20;;;;;;5093717;28;20460;-73
2021/03/04 05:28:34;;;;;;;57.00;31.60;;;103.10;1996.80;;;;;;5093436;28;20039;-73
2021/03/04 05:31:00;;;;;;;303.63;154.88;;;103.20;1996.80;;;;;;5092133;28;20020;-73
2021/03/04 05:33:26;;;;;;;132.27;81.63;;;103.20;2022.40;;;;;;5092892;28;20032;-73
2021/03/04 05:35:51;;;;;;;74.38;44.45;;;103.30;2022.40;;;;;;5093029;28;20040;-74
2021/03/04 05:38:17;;;;;;;61.67;34.28;;;103.30;2022.40;;;;;;5092627;28;20032;-73
2021/03/04 05:40:43;;;;;;;61.20;37.50;;;128.00;2048.00;;;;;;5091242;28;20032;-73
2021/03/04 05:43:10;;;;;;;66.82;37.80;;;128.00;2048.00;;;;;;5093216;28;20089;-73
2021/03/04 05:45:39;;;;;;;67.97;38.75;;;128.10;2048.00;;;;;;5093564;28;20016;-73
2021/03/04 05:48:08;;;;;;;73.13;37.90;;;128.00;2022.40;;;;;;5096465;28;20506;-73
2021/03/04 05:50:37;;;;;;;75.93;42.72;;;128.00;2048.00;;;;;;5097726;28;20030;-73
2021/03/04 05:53:10;;;;;;;72.03;39.08;;;128.10;2048.00;;;;;;5097131;28;20024;-73
2021/03/04 05:55:37;;;;;;;66.68;38.95;;;128.00;2022.40;;;;;;5079962;28;20472;-73
2021/03/04 05:58:04;;;;;;;67.95;37.45;;;128.00;2048.00;;;;;;5095682;28;20395;-73
2021/03/04 06:00:30;;;;;;;64.30;36.20;;;128.10;2048.00;;;;;;5096034;28;20026;-73
2021/03/04 06:02:56;;;;;;;72.43;37.97;;;128.20;2048.00;;;;;;5095672;28;20122;-73
2021/03/04 06:05:22;;;;;;;89.07;46.13;;;128.20;2048.00;;;;;;5095142;28;20044;-73
2021/03/04 06:07:47;;;;;;;114.60;51.67;;;128.20;2048.00;;;;;;5113451;28;20047;-73
2021/03/04 06:10:15;;;;;;;103.70;53.45;;;128.30;2048.00;;;;;;5117295;28;20038;-74
2021/03/04 06:12:41;;;;;;;89.55;49.08;;;128.30;2048.00;;;;;;5115940;28;20038;-73
2021/03/04 06:15:09;;;;;;;104.85;53.65;;;128.30;2048.00;;;;;;5115993;28;20016;-73
2021/03/04 06:17:36;;;;;;;109.38;54.85;;;128.40;2048.00;;;;;;5115501;28;20031;-74
2021/03/04 06:20:07;;;;;;;109.18;53.63;;;128.40;2048.00;;;;;;5115358;28;20057;-74
2021/03/04 06:22:38;;;;;;;101.05;51.72;;;128.40;2048.00;;;;;;5098756;28;20038;-74
2021/03/04 06:25:11;;;;;;;98.35;49.50;;;128.50;2048.00;;;;;;5117198;28;20050;-73
2021/03/04 06:27:39;;;;;;;95.80;49.08;;;128.50;2048.00;;;;;;5115881;28;20024;-74
2021/03/04 06:30:07;;;;;;;104.32;53.35;;;128.60;2048.00;;;;;;5115676;28;20390;-74
2021/03/04 06:32:33;;;;;;;179.85;91.30;;;128.70;2048.00;;;;;;5116690;27;20115;-74
2021/03/04 06:35:09;;;;;;;189.52;100.07;;;128.70;2048.00;;;;;;5117127;28;20051;-74
2021/03/04 06:37:41;;;;;;;181.40;92.55;;;128.80;2048.00;;;;;;5112446;28;20035;-74
2021/03/04 06:40:16;;;;;;;150.15;79.57;;;128.80;2022.40;;;;;;5114048;28;20192;-73
2021/03/04 06:42:44;;;;;;;213.52;127.22;;;128.90;2022.40;;;;;;5115563;28;20019;-73
2021/03/04 06:45:33;;;;;;;154.98;79.68;;;128.90;2022.40;;;;;;5116599;28;20019;-74
2021/03/04 06:48:14;;;;;;;145.82;74.93;;;153.60;2022.40;;;;;;5097986;28;20364;-74
2021/03/04 06:50:47;;;;;;;142.38;74.32;;;153.60;2022.40;;;;;;5115466;28;20023;-73
2021/03/04 06:53:32;;;;;;;180.85;88.10;;;153.70;2022.40;;;;;;5114909;28;20032;-73
2021/03/04 06:56:06;;;;;;;162.35;81.88;;;153.70;2022.40;;;;;;5116541;28;20051;-74
2021/03/04 06:58:36;;;;;;;148.13;81.85;;;153.80;2022.40;;;;;;5114183;28;20030;-74
2021/03/04 07:01:15;;;;;;;150.95;80.97;;;153.80;1996.80;;;;;;5116233;27;20049;-74
2021/03/04 07:03:46;;;;;;;145.32;78.03;;;153.90;1996.80;;;;;;5116573;28;20543;-74
2021/03/04 07:06:13;;;;;;;135.30;74.95;;;154.00;1971.20;;;;;;5115921;28;20051;-74
2021/03/04 07:08:43;;;;;;;131.85;74.97;;;154.10;1971.20;;;;;;5114501;28;20436;-74
2021/03/04 07:11:15;;;;;;;130.60;70.00;;;154.20;1971.20;;;;;;5114455;28;20039;-74
2021/03/04 07:13:42;;;;;;;130.27;68.05;;;154.30;1945.60;;;;;;5113899;28;20814;-74
2021/03/04 07:16:17;;;;;;;121.10;66.32;;;154.30;1920.00;;;;;;5116169;28;20015;-74
2021/03/04 07:18:54;;;;;;;121.80;65.35;;;154.40;1894.40;;;;;;5114921;28;20042;-74
2021/03/04 07:21:24;;;;;;;120.60;62.88;;;154.50;1894.40;;;;;;5115918;28;20030;-74
2021/03/04 07:23:51;;;;;;;102.87;60.10;;;179.20;1894.40;;;;;;5116358;28;20798;-74
2021/03/04 07:26:17;;;;;;;104.43;57.80;;;179.30;1894.40;;;;;;5115662;28;21004;-74
2021/03/04 07:28:45;;;;;;;108.70;61.58;;;179.40;1868.80;;;;;;5114621;28;20485;-74
2021/03/04 07:31:12;;;;;;;110.50;61.80;;;179.40;1868.80;;;;;;5114443;28;20024;-74
2021/03/04 07:33:42;;;;;;;102.78;61.63;;;179.40;1868.80;;;;;;5114114;28;20106;-74
2021/03/04 07:36:10;;;;;;;115.47;62.90;;;179.50;1868.80;;;;;;5113867;28;20030;-74
2021/03/04 07:38:37;;;;;;;109.07;60.10;;;179.60;1894.40;;;;;;5115550;28;20104;-74
2021/03/04 07:41:09;;;;;;;112.97;61.13;;;179.70;1868.80;;;;;;5115517;28;20020;-74
2021/03/04 07:43:57;;;;;;;110.55;63.75;;;179.80;1868.80;;;;;;5115433;28;20089;-74
2021/03/04 07:46:32;;;;;;;102.78;62.08;;;179.90;1868.80;;;;;;5115347;28;20039;-74
2021/03/04 07:49:03;;;;;;;108.43;59.83;;;179.90;1868.80;;;;;;5114090;28;20031;-75
2021/03/04 07:51:39;;;;;;;103.63;61.13;;;179.90;1868.80;;;;;;5115593;28;20027;-77
2021/03/04 07:54:05;;;;;;;100.68;59.40;;;180.10;1843.20;;;;;;5115024;28;20035;-75
2021/03/04 07:56:31;;;;;;;104.78;59.38;;;204.80;1843.20;;;;;;5113848;28;20015;-75
2021/03/04 07:59:17;;;;;;;110.05;58.75;;;204.80;1843.20;;;;;;5113952;28;20395;-75
2021/03/04 08:01:55;;;;;;;104.45;58.45;;;204.90;1843.20;;;;;;5115343;28;20094;-75
2021/03/04 08:04:22;;;;;;;104.30;58.78;;;205.00;1817.60;;;;;;5115228;28;20015;-76
2021/03/04 08:06:52;;;;;;;94.78;56.78;;;205.10;1817.60;;;;;;5115046;28;20040;-75
2021/03/04 08:09:32;;;;;;;107.35;59.80;;;205.20;1792.00;;;;;;5113315;28;20059;-75
2021/03/04 08:12:04;;;;;;;109.03;58.83;;;205.20;1817.60;;;;;;5115140;28;20059;-75
2021/03/04 08:14:30;;;;;;;117.65;62.65;;;205.40;1817.60;;;;;;5115232;28;20260;-75
2021/03/04 08:16:56;;;;;;;115.85;61.35;;;205.40;1792.00;;;;;;5113893;28;20044;-75
2021/03/04 08:19:29;;;;;;;106.38;62.67;;;205.50;1792.00;;;;;;5114905;28;20361;-75
2021/03/04 08:22:04;;;;;;;101.30;55.03;;;205.60;1792.00;;;;;;5114769;28;20476;-76
2021/03/04 08:24:32;;;;;;;88.22;52.10;;;230.40;1766.40;;;;;;5114734;28;20022;-75
2021/03/04 08:26:58;;;;;;;97.47;51.88;;;230.40;1766.40;;;;;;5114270;28;20015;-76
2021/03/04 08:29:24;;;;;;;90.18;50.78;;;230.50;1766.40;;;;;;5113147;28;20016;-75
2021/03/04 08:31:54;;;;;;;96.47;51.10;;;230.50;1766.40;;;;;;5113403;28;20114;-75
2021/03/04 08:34:19;;;;;;;81.68;48.33;;;230.60;1766.40;;;;;;5113393;28;20117;-75
2021/03/04 08:36:47;;;;;;;77.47;46.70;;;230.70;1766.40;;;;;;5114543;27;20051;-76
2021/03/04 08:39:14;;;;;;;68.75;41.15;;;230.80;1740.80;;;;;;5114547;28;20016;-76
2021/03/04 08:41:40;;;;;;;68.00;40.45;;;230.80;1740.80;;;;;;5114529;28;20039;-75
2021/03/04 08:44:17;;;;;;;76.43;46.85;;;230.90;1740.80;;;;;;5113230;28;20062;-76
2021/03/04 08:46:48;;;;;;;61.20;39.08;;;231.00;1689.60;;;;;;5114380;28;20016;-75
2021/03/04 08:49:21;;;;;;;;;;;231.10;1664.00;;;;;;5113480;28;20759;-75
2021/03/04 08:51:48;;;;;;;63.03;37.15;;;231.10;1638.40;;;;;;5114542;28;19907;-75
2021/03/04 08:54:21;;;;;;;69.57;35.38;;;231.20;1664.00;;;;;;5114333;28;20095;-75
2021/03/04 08:56:58;;;;;;;60.95;35.63;;;231.20;1664.00;;;;;;5114188;28;20023;-76
2021/03/04 08:59:27;;;;;;;59.60;36.00;;;256.00;1612.80;;;;;;5114252;27;20019;-76
2021/03/04 09:01:58;;;;;;;62.15;38.15;;;256.00;1638.40;;;;;;5112859;28;20019;-76
2021/03/04 09:04:26;;;;;;;67.90;37.30;;;256.10;1638.40;;;;;;5114412;28;20041;-76
2021/03/04 09:06:53;;;;;;;64.30;36.75;;;256.20;1638.40;;;;;;5113922;28;20403;-75
2021/03/04 09:09:30;;;;;;;61.38;34.78;;;256.40;1612.80;;;;;;5114031;28;20024;-76
2021/03/04 09:11:57;;;;;;;58.90;31.63;;;256.40;1612.80;;;;;;5113955;28;20494;-75
2021/03/04 09:14:31;;;;;;;54.30;29.70;;;256.60;1587.20;;;;;;5112017;28;20066;-76
2021/03/04 09:16:58;;;;;;;46.72;29.90;;;256.70;1561.60;;;;;;5113989;28;20047;-76
2021/03/04 09:19:31;;;;;;;46.65;29.40;;;256.80;1561.60;;;;;;5113879;28;20488;-76
2021/03/04 09:21:59;;;;;;;48.58;28.98;;;281.60;1587.20;;;;;;5113352;28;20030;-76
2021/03/04 09:24:26;;;;;;;51.92;31.05;;;281.70;1536.00;;;;;;5112523;28;20483;-76
2021/03/04 09:26:52;;;;;;;44.92;29.38;;;281.80;1561.60;;;;;;5113861;28;20030;-76
2021/03/04 09:29:19;;;;;;;51.60;28.42;;;282.00;1536.00;;;;;;5112519;28;20102;-76
2021/03/04 09:31:54;;;;;;;47.05;30.25;;;282.00;1536.00;;;;;;5112533;28;20483;-76
2021/03/04 09:34:34;;;;;;;51.35;31.52;;;282.20;1510.40;;;;;;5111932;28;20035;-76
2021/03/04 09:37:11;;;;;;;43.80;29.20;;;282.30;1484.80;;;;;;5113802;28;20020;-76
2021/03/04 09:39:49;;;;;;;51.53;29.80;;;282.40;1484.80;;;;;;5113735;28;20073;-76
2021/03/04 09:42:17;;;;;;;44.17;27.63;;;282.50;1459.20;;;;;;5112448;28;20039;-76
2021/03/04 09:44:56;;;;;;;42.45;28.30;;;307.20;1484.80;;;;;;5112489;28;20028;-76
2021/03/04 09:47:24;;;;;;;45.00;26.63;;;307.20;1484.80;;;;;;5111862;28;20387;-76
2021/03/04 09:49:50;;;;;;;45.08;27.42;;;307.30;1459.20;;;;;;5112356;28;20027;-75
2021/03/04 09:52:23;;;;;;;39.78;27.13;;;307.40;1484.80;;;;;;5113551;28;20420;-76
2021/03/04 09:54:49;;;;;;;38.28;25.95;;;307.40;1433.60;;;;;;5113903;28;20073;-76
2021/03/04 09:57:19;;;;;;;41.53;22.42;;;307.50;1408.00;;;;;;5113568;28;20103;-76
2021/03/04 09:59:50;;;;;;;33.92;23.50;;;307.60;1408.00;;;;;;5113577;28;20099;-76
2021/03/04 10:02:17;;;;;;;35.80;22.80;;;307.70;1382.40;;;;;;5113446;28;20019;-76
2021/03/04 10:05:03;;;;;;;37.88;23.45;;;307.70;1408.00;;;;;;5113784;28;20486;-76
2021/03/04 10:07:30;;;;;;;42.45;31.05;;;307.80;1382.40;;;;;;5113429;28;20487;-76
2021/03/04 10:09:58;;;;;;;34.70;21.88;;;307.90;1356.80;;;;;;5113362;28;20477;-76
2021/03/04 10:12:24;;;;;;;37.20;22.02;;;308.00;1382.40;;;;;;5112103;28;20126;-76
2021/03/04 10:14:53;;;;;;;41.65;19.48;;;308.10;1305.60;;;;;;5113425;28;20421;-76
2021/03/04 10:17:19;;;;;;;33.47;19.45;;;332.80;1356.80;;;;;;5113682;28;20019;-76
2021/03/04 10:19:45;;;;;;;37.60;22.90;;;332.90;1356.80;;;;;;5113370;28;20431;-76
2021/03/04 10:22:12;;;;;;;74.68;23.77;;;333.00;1305.60;;;;;;5090896;28;20028;-77
2021/03/04 10:24:38;;;;;;;35.05;17.77;;;333.10;1408.00;;;;;;5071256;28;20037;-74
2021/03/04 10:27:05;;;;;;;46.35;18.17;;;333.50;1484.80;;;;;;5073343;28;20040;-75
2021/03/04 10:29:32;;;;;;;31.80;16.52;;;333.60;1280.00;;;;;;5072820;28;20024;-75
2021/03/04 10:31:58;;;;;;;34.85;17.65;;;333.70;1280.00;;;;;;5071286;28;20040;-75
2021/03/04 10:34:24;;;;;;;29.15;20.90;;;333.70;1203.20;;;;;;5075891;28;20112;-75
2021/03/04 10:36:50;;;;;;;38.85;20.73;;;358.40;1228.80;;;;;;5076702;28;20034;-79
2021/03/04 10:39:17;;;;;;;32.40;18.48;;;358.50;1228.80;;;;;;5074703;28;20380;-77
2021/03/04 10:41:44;;;;;;;27.42;17.02;;;358.50;1203.20;;;;;;5073761;28;20468;-79
2021/03/04 10:44:11;;;;;;;29.40;19.38;;;358.70;1228.80;;;;;;5075110;28;20048;-75
2021/03/04 10:46:37;;;;;;;30.40;19.67;;;358.90;1228.80;;;;;;5076156;28;20527;-77
2021/03/04 10:49:04;;;;;;;24.63;16.33;;;358.90;1203.20;;;;;;5076182;28;20112;-77
2021/03/04 10:51:31;;;;;;;19.25;12.95;;;359.00;1203.20;;;;;;5074725;28;20025;-77
2021/03/04 10:53:56;;;;;;;28.10;16.73;;;359.00;1126.40;;;;;;5074336;28;20492;-77
2021/03/04 10:56:22;;;;;;;27.63;15.93;;;359.10;1126.40;;;;;;5082358;28;20021;-77
2021/03/04 10:58:48;;;;;;;29.77;17.25;;;359.00;1100.80;;;;;;5074543;28;20048;-77
2021/03/04 11:01:14;;;;;;;26.83;14.90;;;359.10;1100.80;;;;;;5079548;28;20107;-77
2021/03/04 11:03:39;;;;;;;77.15;16.38;;;359.00;1100.80;;;;;;5094815;28;20031;-77
2021/03/04 11:06:05;;;;;;;43.70;18.98;;;359.10;1100.80;;;;;;5094307;28;20660;-76
2021/03/04 11:08:31;;;;;;;33.13;17.60;;;359.20;1126.40;;;;;;5094581;28;20028;-78
2021/03/04 11:10:57;;;;;;;20.83;13.93;;;359.20;1100.80;;;;;;5095348;28;20605;-76
2021/03/04 11:13:23;;;;;;;29.38;16.88;;;359.20;1100.80;;;;;;5095813;28;20479;-77
2021/03/04 11:15:48;;;;;;;32.17;18.60;;;359.20;1075.20;;;;;;5095582;28;20490;-79
2021/03/04 11:18:14;;;;;;;34.50;16.33;;;359.30;1100.80;;;;;;5095636;28;20121;-77
2021/03/04 11:20:41;;;;;;;25.00;14.63;;;359.30;1100.80;;;;;;5075287;28;20025;-77
2021/03/04 11:23:06;;;;;;;25.92;14.93;;;359.30;1075.20;;;;;;5078118;28;20704;-77
2021/03/04 11:25:32;;;;;;;20.00;12.90;;;359.30;1075.20;;;;;;5094389;28;20361;-77
2021/03/04 11:27:58;;;;;;;23.20;15.00;;;359.30;1075.20;;;;;;5094156;28;20068;-76
2021/03/04 11:30:24;;;;;;;21.75;14.15;;;384.00;1075.20;;;;;;5095488;28;20028;-77
2021/03/04 11:32:50;;;;;;;15.85;11.82;;;384.10;1100.80;;;;;;5095326;28;20147;-76
2021/03/04 11:35:15;;;;;;;23.58;12.82;;;384.10;1049.60;;;;;;5094576;28;20507;-76
2021/03/04 11:37:41;;;;;;;18.70;12.13;;;384.20;1049.60;;;;;;5093593;28;20107;-76
2021/03/04 11:40:08;;;;;;;16.17;12.00;;;384.10;1049.60;;;;;;5094651;28;20047;-76
2021/03/04 11:42:33;;;;;;;20.45;12.98;;;384.10;1075.20;;;;;;5095234;28;20066;-77
2021/03/04 11:44:59;;;;;;;26.95;14.90;;;384.20;1075.20;;;;;;5094526;28;20442;-76
2021/03/04 11:47:25;;;;;;;18.27;12.70;;;384.30;1075.20;;;;;;5095046;28;20360;-76
2021/03/04 11:49:54;;;;;;;19.33;12.45;;;384.40;1049.60;;;;;;5095105;28;20047;-76
2021/03/04 11:52:20;;;;;;;35.05;24.45;;;384.50;1075.20;;;;;;5093261;28;20750;-76
2021/03/04 11:54:46;;;;;;;23.33;15.25;;;384.70;1024.00;;;;;;5095486;28;20016;-76
2021/03/04 11:57:12;;;;;;;18.38;12.13;;;384.70;1024.00;;;;;;5095148;28;20070;-76
2021/03/04 11:59:38;;;;;;;19.25;14.35;;;384.80;1049.60;;;;;;5093432;28;20040;-76
2021/03/04 12:02:04;;;;;;;23.25;11.60;;;409.60;1024.00;;;;;;5094498;28;20028;-76